Time;durP1;ratioP1;P1;durP2;ratioP2;P2;SDS_P1;SDS_P2;PMS_P1;PMS_P2;Temp;Humidity;BMP_temperature;BMP_pressure;BME280_temperature;BME280_humidity;BME280_pressure;Samples;Min_cycle;Max_cycle;Signal;HPM_P1;HPM_P2
2021/08/29 00:01:10;;;;;;;28.73;19.52;;;;;;;11.67;83.79;100071.54;1787590;80;27543;-66
2021/08/29 00:03:36;;;;;;;28.70;19.73;;;;;;;11.65;83.72;100075.14;1787546;80;25687;-66
2021/08/29 00:06:03;;;;;;;26.55;19.57;;;;;;;11.62;83.70;100073.06;1787348;80;26282;-66
2021/08/29 00:08:29;;;;;;;25.02;19.77;;;;;;;11.59;83.51;100062.30;1787869;80;26406;-66
2021/08/29 00:10:55;;;;;;;27.30;19.12;;;;;;;11.59;84.14;100065.82;1787443;80;25795;-66
2021/08/29 00:13:21;;;;;;;28.35;20.68;;;;;;;11.58;83.82;100060.72;1787294;80;28659;-66
2021/08/29 00:15:48;;;;;;;28.15;20.37;;;;;;;11.62;85.02;100058.95;1787529;80;33021;-66
2021/08/29 00:18:14;;;;;;;28.38;20.15;;;;;;;11.63;84.65;100055.13;1787562;80;25664;-66
2021/08/29 00:20:40;;;;;;;28.17;20.23;;;;;;;11.61;84.10;100057.91;1787505;80;26232;-66
2021/08/29 00:23:07;;;;;;;30.82;21.15;;;;;;;11.56;83.88;100058.33;1787613;80;25830;-66
2021/08/29 00:25:33;;;;;;;30.45;21.10;;;;;;;11.53;83.68;100056.26;1784811;80;28384;-66
2021/08/29 00:27:59;;;;;;;24.70;19.57;;;;;;;11.50;83.62;100059.60;1781409;80;26129;-65
2021/08/29 00:30:25;;;;;;;30.92;20.68;;;;;;;11.46;83.49;100060.02;1781748;80;25769;-66
2021/08/29 00:32:52;;;;;;;26.87;20.02;;;;;;;11.44;83.67;100056.02;1781697;80;26370;-65
2021/08/29 00:35:19;;;;;;;27.80;20.08;;;;;;;11.42;83.74;100058.27;1781516;80;25744;-65
2021/08/29 00:37:45;;;;;;;29.05;19.77;;;;;;;11.36;83.87;100053.02;1781458;80;27480;-65
2021/08/29 00:40:15;;;;;;;26.23;18.55;;;;;;;11.36;83.74;100064.41;1781584;80;26402;-65
2021/08/29 00:42:44;;;;;;;32.95;20.68;;;;;;;11.32;83.93;100053.95;1781528;80;25771;-65
2021/08/29 00:45:13;;;;;;;31.48;22.52;;;;;;;11.29;84.11;100056.77;1781813;80;26401;-65
2021/08/29 00:47:40;;;;;;;32.93;21.33;;;;;;;11.27;84.43;100059.00;1781864;80;25767;-66
2021/08/29 00:50:07;;;;;;;34.27;25.80;;;;;;;11.25;84.35;100060.42;1781486;80;28281;-65
2021/08/29 00:52:38;;;;;;;36.40;25.95;;;;;;;11.23;84.42;100059.95;1781688;80;25889;-67
2021/08/29 00:55:07;;;;;;;29.63;23.25;;;;;;;11.19;84.84;100064.64;1781721;80;25842;-67
2021/08/29 00:57:34;;;;;;;35.95;25.95;;;;;;;11.19;84.73;100061.94;1777013;80;26259;-67
2021/08/29 01:00:00;;;;;;;31.52;23.50;;;;;;;11.16;85.05;100063.91;1781629;80;25863;-65
2021/08/29 01:02:28;;;;;;;31.00;22.65;;;;;;;11.13;84.95;100064.55;1781700;80;28168;-66
2021/08/29 01:05:06;;;;;;;34.33;24.45;;;;;;;11.13;85.07;100065.11;1781436;80;25703;-65
2021/08/29 01:07:37;;;;;;;32.05;24.92;;;;;;;11.11;85.22;100061.94;1781720;80;26406;-65
2021/08/29 01:10:11;;;;;;;33.10;24.75;;;;;;;11.09;85.43;100068.23;1781584;80;25876;-66
2021/08/29 01:12:42;;;;;;;34.48;25.55;;;;;;;11.08;85.35;100070.69;1781588;80;25736;-65
2021/08/29 01:15:10;;;;;;;34.25;27.20;;;;;;;11.06;85.61;100074.27;1781653;80;28201;-65
2021/08/29 01:17:39;;;;;;;31.62;25.27;;;;;;;11.05;85.66;100072.13;1781634;80;25730;-65
2021/08/29 01:20:30;;;;;;;31.85;23.50;;;;;;;11.03;85.58;100073.80;1781431;80;26371;-67
2021/08/29 01:22:59;;;;;;;34.23;22.48;;;;;;;11.03;85.53;100077.86;1781534;80;25696;-66
2021/08/29 01:25:28;;;;;;;27.82;21.27;;;;;;;11.02;85.45;100077.60;1783106;80;25631;-66
2021/08/29 01:28:12;;;;;;;28.17;21.75;;;;;;;11.02;85.31;100080.31;1787644;80;29603;-65
2021/08/29 01:30:57;;;;;;;33.18;26.33;;;;;;;11.01;85.36;100078.70;1787281;80;25756;-66
2021/08/29 01:33:24;;;;;;;31.87;22.60;;;;;;;10.99;85.53;100082.30;1787321;80;25716;-66
2021/08/29 01:35:51;;;;;;;27.75;21.93;;;;;;;10.97;85.41;100077.76;1787516;80;25701;-66
2021/08/29 01:38:18;;;;;;;30.32;21.73;;;;;;;10.95;85.24;100076.50;1787602;80;26361;-66
2021/08/29 01:40:45;;;;;;;35.63;24.43;;;;;;;10.93;85.40;100078.70;1787202;80;27000;-66
2021/08/29 01:43:13;;;;;;;33.33;22.42;;;;;;;10.92;85.56;100068.44;1787454;80;25790;-66
2021/08/29 01:45:39;;;;;;;33.38;24.80;;;;;;;10.91;85.49;100069.54;1787586;80;25965;-66
2021/08/29 01:48:06;;;;;;;32.23;26.27;;;;;;;10.91;85.57;100075.52;1787558;80;26408;-66
2021/08/29 01:50:35;;;;;;;39.67;27.40;;;;;;;10.91;85.82;100079.58;1787848;80;25677;-66
2021/08/29 01:53:02;;;;;;;34.55;27.50;;;;;;;10.90;85.88;100076.65;1787684;80;28219;-67
2021/08/29 01:55:28;;;;;;;34.78;26.52;;;;;;;10.87;86.01;100076.71;1787399;80;25787;-66
2021/08/29 01:57:54;;;;;;;40.00;28.38;;;;;;;10.85;86.05;100072.17;1787583;80;25704;-67
2021/08/29 02:00:22;;;;;;;37.13;27.52;;;;;;;10.82;86.28;100070.88;1787679;80;26325;-66
2021/08/29 02:02:48;;;;;;;36.63;26.60;;;;;;;10.82;86.61;100076.86;1787363;80;26413;-66
2021/08/29 02:05:14;;;;;;;35.58;25.82;;;;;;;10.79;86.30;100070.16;1787561;80;27526;-67
2021/08/29 02:07:51;;;;;;;35.15;27.48;;;;;;;10.78;86.44;100068.58;1787605;80;26452;-67
2021/08/29 02:10:23;;;;;;;34.73;25.95;;;;;;;10.78;86.61;100069.14;1787549;80;25878;-67
2021/08/29 02:13:07;;;;;;;35.75;25.30;;;;;;;10.79;86.71;100069.38;1758489;80;25724;-67
2021/08/29 02:15:37;;;;;;;34.03;24.40;;;;;;;10.79;86.62;100067.45;1787377;80;25752;-67
2021/08/29 02:18:11;;;;;;;34.35;25.23;;;;;;;10.79;86.65;100074.22;1787285;80;27443;-66
2021/08/29 02:20:38;;;;;;;32.30;23.25;;;;;;;10.79;86.65;100070.16;1787436;80;26006;-66
2021/08/29 02:23:06;;;;;;;30.72;23.18;;;;;;;10.80;86.64;100071.77;1787560;80;25799;-67
2021/08/29 02:25:33;;;;;;;33.83;24.00;;;;;;;10.78;86.47;100071.85;1786394;80;26466;-68
2021/08/29 02:28:00;;;;;;;30.17;23.80;;;;;;;10.77;86.36;100072.39;1751347;80;25790;-65
2021/08/29 02:30:27;;;;;;;28.38;21.80;;;;;;;10.76;86.24;100067.29;1781826;80;27431;-66
2021/08/29 02:32:56;;;;;;;27.82;22.90;;;;;;;10.74;86.00;100066.81;1781498;80;25672;-67
2021/08/29 02:35:22;;;;;;;30.37;22.60;;;;;;;10.72;86.08;100063.07;1781845;80;25682;-67
2021/08/29 02:37:49;;;;;;;28.65;21.00;;;;;;;10.70;86.09;100058.53;1781673;80;26446;-66
2021/08/29 02:40:17;;;;;;;28.12;21.27;;;;;;;10.70;86.01;100058.53;1781693;80;25792;-66
2021/08/29 02:42:45;;;;;;;30.95;21.75;;;;;;;10.69;85.90;100054.79;1781667;80;27416;-66
2021/08/29 02:45:13;;;;;;;27.05;20.65;;;;;;;10.68;85.82;100054.56;1750751;80;25790;-66
2021/08/29 02:47:40;;;;;;;29.48;21.75;;;;;;;10.68;85.73;100057.27;1781555;80;25714;-66
2021/08/29 02:50:08;;;;;;;26.85;21.93;;;;;;;10.65;85.64;100047.86;1781739;80;26241;-66
2021/08/29 02:52:39;;;;;;;31.00;21.97;;;;;;;10.61;85.38;100045.56;1781996;80;25807;-65
2021/08/29 02:55:08;;;;;;;33.23;22.25;;;;;;;10.56;85.31;100047.84;1781592;80;27447;-67
2021/08/29 02:57:36;;;;;;;28.02;20.88;;;;;;;10.53;85.41;100047.13;1750987;80;25793;-67
2021/08/29 03:00:05;;;;;;;30.80;20.75;;;;;;;10.50;85.22;100051.80;1781823;80;26367;-66
2021/08/29 03:02:32;;;;;;;32.33;22.35;;;;;;;10.49;85.26;100058.34;1781554;80;26169;-66
2021/08/29 03:05:01;;;;;;;28.73;22.58;;;;;;;10.45;85.04;100056.81;1751105;80;25777;-66
2021/08/29 03:07:28;;;;;;;28.85;21.37;;;;;;;10.43;85.15;100059.02;1750800;80;27278;-66
2021/08/29 03:09:55;;;;;;;30.45;22.15;;;;;;;10.40;85.20;100048.03;1781401;80;25765;-66
2021/08/29 03:12:22;;;;;;;29.35;22.80;;;;;;;10.38;85.36;100040.80;1781785;80;25799;-65
2021/08/29 03:14:48;;;;;;;28.87;22.20;;;;;;;10.34;85.41;100041.98;1781827;80;26237;-67
2021/08/29 03:17:16;;;;;;;28.10;21.45;;;;;;;10.34;85.45;100035.22;1750753;80;25384;-66
2021/08/29 03:19:45;;;;;;;31.87;21.70;;;;;;;10.33;85.21;100032.27;1781753;80;27460;-66
2021/08/29 03:22:13;;;;;;;28.05;20.88;;;;;;;10.30;85.08;100028.83;1781724;80;25755;-67
2021/08/29 03:24:40;;;;;;;28.52;21.00;;;;;;;10.27;85.00;100038.91;1781598;80;25727;-66
2021/08/29 03:27:09;;;;;;;31.02;20.80;;;;;;;10.23;84.89;100029.81;1785632;80;25798;-66
2021/08/29 03:29:35;;;;;;;31.17;21.68;;;;;;;10.21;84.90;100034.74;1787726;80;26101;-66
2021/08/29 03:32:04;;;;;;;27.32;21.02;;;;;;;10.19;85.05;100033.70;1787262;80;29715;-66
2021/08/29 03:34:32;;;;;;;25.35;20.85;;;;;;;10.15;85.00;100039.50;1787510;80;25772;-66
2021/08/29 03:36:58;;;;;;;25.72;20.85;;;;;;;10.10;84.87;100032.88;1758548;80;25821;-67
2021/08/29 03:39:27;;;;;;;28.07;20.92;;;;;;;10.07;85.03;100036.98;1787377;80;26117;-65
2021/08/29 03:41:57;;;;;;;31.00;20.95;;;;;;;10.04;85.12;100030.85;1787668;80;25969;-67
2021/08/29 03:44:27;;;;;;;32.08;21.02;;;;;;;10.03;85.17;100044.14;1787661;80;27467;-67
2021/08/29 03:46:53;;;;;;;25.75;21.65;;;;;;;10.01;85.03;100032.84;1787453;80;25802;-67
2021/08/29 03:49:21;;;;;;;26.05;20.55;;;;;;;10.01;85.13;100033.37;1787583;80;25651;-67
2021/08/29 03:51:48;;;;;;;33.23;21.17;;;;;;;9.99;85.26;100034.25;1787584;80;25786;-66
2021/08/29 03:54:15;;;;;;;26.10;20.65;;;;;;;9.98;85.24;100029.41;1787463;80;26021;-67
2021/08/29 03:56:42;;;;;;;26.93;20.48;;;;;;;9.98;85.31;100031.33;1787541;80;27390;-67
2021/08/29 03:59:10;;;;;;;28.70;21.50;;;;;;;9.97;85.16;100039.17;1758335;80;25702;-67
2021/08/29 04:01:37;;;;;;;26.00;20.27;;;;;;;9.95;85.11;100033.30;1758621;80;25571;-66
2021/08/29 04:04:05;;;;;;;31.82;20.72;;;;;;;9.93;85.07;100032.78;1787508;80;25779;-67
2021/08/29 04:06:33;;;;;;;25.77;20.55;;;;;;;9.92;85.02;100030.64;1787569;80;25696;-67
2021/08/29 04:09:06;;;;;;;27.13;20.87;;;;;;;9.90;85.12;100029.59;1787622;80;27507;-67
2021/08/29 04:11:34;;;;;;;29.23;20.82;;;;;;;9.90;85.21;100035.56;1787504;80;25659;-67
2021/08/29 04:14:02;;;;;;;26.97;20.45;;;;;;;9.88;85.38;100029.69;1787474;80;26341;-68
2021/08/29 04:16:29;;;;;;;29.50;21.15;;;;;;;9.89;85.55;100040.18;1758588;80;25716;-67
2021/08/29 04:18:58;;;;;;;26.77;21.48;;;;;;;9.89;85.62;100032.08;1787677;80;25812;-67
2021/08/29 04:21:26;;;;;;;27.40;21.30;;;;;;;9.91;85.73;100039.31;1787769;80;27407;-67
2021/08/29 04:23:54;;;;;;;28.73;20.92;;;;;;;9.93;85.87;100043.05;1787505;80;25764;-66
2021/08/29 04:26:21;;;;;;;29.05;20.43;;;;;;;9.94;85.93;100050.59;1786063;80;25849;-66
2021/08/29 04:28:48;;;;;;;32.65;20.32;;;;;;;9.95;85.96;100054.91;1696778;81;25754;-67
2021/08/29 04:31:20;;;;;;;32.38;20.88;;;;;;;9.97;86.03;100049.98;1750645;81;25740;-66
2021/08/29 04:33:46;;;;;;;28.50;21.60;;;;;;;10.00;86.14;100054.77;1748565;82;27671;-67
2021/08/29 04:36:13;;;;;;;28.52;21.68;;;;;;;10.02;86.24;100047.94;1750472;81;25701;-66
2021/08/29 04:38:39;;;;;;;26.52;21.33;;;;;;;10.04;86.40;100043.58;1750566;81;25704;-66
2021/08/29 04:41:05;;;;;;;26.45;21.10;;;;;;;10.08;86.49;100045.35;1750621;81;25759;-65
2021/08/29 04:43:32;;;;;;;26.30;20.27;;;;;;;10.11;86.65;100042.56;1750771;81;25621;-66
2021/08/29 04:45:58;;;;;;;27.65;20.15;;;;;;;10.16;86.72;100045.13;1750530;81;27697;-66
2021/08/29 04:48:25;;;;;;;27.13;21.12;;;;;;;10.20;86.77;100049.35;1750632;81;25970;-66
2021/08/29 04:50:51;;;;;;;28.05;20.55;;;;;;;10.25;86.77;100054.66;1750787;81;25803;-65
2021/08/29 04:53:18;;;;;;;31.77;21.68;;;;;;;10.27;86.61;100052.42;1750408;81;25796;-66
2021/08/29 04:55:44;;;;;;;31.55;22.00;;;;;;;10.28;86.63;100046.70;1750672;81;25727;-66
2021/08/29 04:58:10;;;;;;;27.50;21.35;;;;;;;10.29;86.58;100037.47;1750658;81;27563;-66
2021/08/29 05:00:36;;;;;;;25.15;21.10;;;;;;;10.32;86.82;100033.92;1750370;81;25878;-66
2021/08/29 05:03:03;;;;;;;26.73;20.68;;;;;;;10.36;86.99;100034.34;1750434;81;25748;-66
2021/08/29 05:05:30;;;;;;;25.05;20.10;;;;;;;10.41;87.18;100031.50;1750436;81;26179;-66
2021/08/29 05:07:56;;;;;;;30.17;21.12;;;;;;;10.46;87.25;100033.27;1750530;81;26098;-66
2021/08/29 05:10:22;;;;;;;29.40;20.55;;;;;;;10.50;87.37;100030.16;1750679;81;27538;-66
2021/08/29 05:12:49;;;;;;;29.60;21.15;;;;;;;10.55;87.46;100035.98;1750600;81;25802;-65
2021/08/29 05:15:15;;;;;;;31.02;22.58;;;;;;;10.60;87.50;100040.69;1720748;81;26149;-65
2021/08/29 05:17:41;;;;;;;25.92;20.65;;;;;;;10.64;87.48;100039.50;1750638;81;25773;-65
2021/08/29 05:20:10;;;;;;;30.17;20.37;;;;;;;10.70;87.66;100041.52;1750677;81;33146;-66
2021/08/29 05:22:36;;;;;;;34.03;21.33;;;;;;;10.75;87.66;100044.86;1750780;81;27438;-65
2021/08/29 05:25:03;;;;;;;28.50;21.52;;;;;;;10.81;87.90;100044.95;1750582;81;25677;-66
2021/08/29 05:27:30;;;;;;;27.95;21.23;;;;;;;10.89;87.89;100056.10;1753780;81;25780;-66
2021/08/29 05:29:56;;;;;;;27.42;20.05;;;;;;;10.95;88.20;100054.84;1756124;81;25771;-65
2021/08/29 05:32:22;;;;;;;29.25;21.57;;;;;;;11.02;88.34;100053.81;1756234;81;32596;-66
2021/08/29 05:34:48;;;;;;;29.25;21.87;;;;;;;11.08;88.29;100048.46;1756391;81;28147;-65
2021/08/29 05:37:14;;;;;;;25.60;21.60;;;;;;;11.15;88.29;100045.28;1755902;81;25729;-65
2021/08/29 05:39:41;;;;;;;30.72;21.68;;;;;;;11.21;88.31;100043.45;1756234;81;25661;-65
2021/08/29 05:42:08;;;;;;;24.92;22.27;;;;;;;11.29;88.84;100045.93;1756210;81;26314;-66
2021/08/29 05:44:34;;;;;;;32.67;22.45;;;;;;;11.37;88.97;100047.03;1728334;81;25899;-66
2021/08/29 05:47:00;;;;;;;31.93;22.22;;;;;;;11.47;89.00;100051.33;1756220;81;28156;-66
2021/08/29 05:49:26;;;;;;;26.35;21.68;;;;;;;11.55;88.81;100058.65;1756139;81;27344;-65
2021/08/29 05:51:53;;;;;;;24.65;21.57;;;;;;;11.61;88.77;100054.64;1756085;81;26410;-65
2021/08/29 05:54:19;;;;;;;26.85;21.75;;;;;;;11.67;88.65;100047.95;1756160;81;26172;-65
2021/08/29 05:56:45;;;;;;;29.23;22.40;;;;;;;11.71;88.54;100041.32;1756280;81;25752;-65
2021/08/29 05:59:12;;;;;;;30.02;23.00;;;;;;;11.78;88.91;100031.59;1756171;81;27649;-65
2021/08/29 06:01:38;;;;;;;23.90;20.95;;;;;;;11.84;88.89;100030.84;1756149;81;25721;-65
2021/08/29 06:04:05;;;;;;;26.62;22.35;;;;;;;11.93;89.03;100034.34;1756188;81;25764;-66
2021/08/29 06:06:33;;;;;;;28.55;23.15;;;;;;;12.02;89.40;100030.27;1756560;80;27608;-66
2021/08/29 06:09:00;;;;;;;32.55;22.70;;;;;;;12.11;89.43;100026.95;1767734;80;26390;-66
2021/08/29 06:11:26;;;;;;;28.83;21.75;;;;;;;12.21;89.31;100034.48;1763603;80;28258;-65
2021/08/29 06:13:53;;;;;;;31.48;22.25;;;;;;;12.28;89.12;100030.16;1790064;80;26572;-66
2021/08/29 06:16:19;;;;;;;27.98;22.65;;;;;;;12.36;89.46;100019.04;1790710;80;25979;-66
2021/08/29 06:18:45;;;;;;;27.98;21.87;;;;;;;12.50;89.83;100026.94;1764706;80;25883;-66
2021/08/29 06:21:11;;;;;;;27.93;21.90;;;;;;;12.61;89.92;100015.12;1775806;80;25813;-66
2021/08/29 06:23:38;;;;;;;30.52;22.70;;;;;;;12.73;90.14;100011.70;1790316;78;27449;-66
2021/08/29 06:26:04;;;;;;;27.27;22.62;;;;;;;12.85;90.22;100018.55;1799004;78;25647;-67
2021/08/29 06:28:30;;;;;;;25.85;21.73;;;;;;;12.97;89.87;100028.69;1788840;80;25920;-67
2021/08/29 06:30:56;;;;;;;27.58;22.10;;;;;;;13.11;90.50;100020.27;1786638;79;26389;-68
2021/08/29 06:33:23;;;;;;;26.42;22.75;;;;;;;13.24;90.38;100020.55;1783554;80;25878;-66
2021/08/29 06:35:49;;;;;;;33.10;22.13;;;;;;;13.37;90.16;100021.44;1766287;80;27476;-66
2021/08/29 06:38:15;;;;;;;29.72;21.48;;;;;;;13.42;89.76;100015.23;1763600;80;26006;-67
2021/08/29 06:40:42;;;;;;;27.93;22.17;;;;;;;13.55;89.20;100025.58;1772885;80;25719;-67
2021/08/29 06:43:08;;;;;;;27.82;22.22;;;;;;;13.69;90.34;100014.95;1788961;78;25732;-67
2021/08/29 06:45:35;;;;;;;25.35;20.35;;;;;;;13.84;90.19;100023.81;1762441;78;25700;-67
2021/08/29 06:48:01;;;;;;;24.82;20.55;;;;;;;13.92;89.26;100022.14;1772628;80;28395;-67
2021/08/29 06:50:27;;;;;;;24.57;20.52;;;;;;;14.00;89.45;100030.19;1767347;80;26369;-66
2021/08/29 06:52:54;;;;;;;26.95;20.52;;;;;;;14.14;89.78;100031.79;1797219;78;26350;-66
2021/08/29 06:55:20;;;;;;;24.67;20.17;;;;;;;14.27;89.76;100025.77;1761502;80;25752;-66
2021/08/29 06:57:46;;;;;;;22.50;19.10;;;;;;;14.39;89.46;100023.07;1765951;80;25989;-66
2021/08/29 07:00:14;;;;;;;23.12;20.52;;;;;;;14.46;88.92;100017.06;1762473;80;27504;-67
2021/08/29 07:02:40;;;;;;;23.90;20.08;;;;;;;14.57;89.16;100014.08;1795895;78;25818;-67
2021/08/29 07:05:08;;;;;;;25.12;20.52;;;;;;;14.72;89.07;100022.14;1784099;80;25989;-67
2021/08/29 07:07:34;;;;;;;27.75;21.62;;;;;;;14.84;89.02;100019.39;1754940;80;25786;-67
2021/08/29 07:10:01;;;;;;;31.50;24.07;;;;;;;15.00;89.39;100020.84;1785098;78;25975;-67
2021/08/29 07:12:27;;;;;;;29.02;23.15;;;;;;;15.19;89.65;100016.66;1769109;80;28684;-67
2021/08/29 07:14:54;;;;;;;24.55;20.23;;;;;;;15.39;89.55;100023.06;1757411;80;27552;-67
2021/08/29 07:17:21;;;;;;;20.30;18.17;;;;;;;15.60;89.59;100018.19;1765916;80;25790;-67
2021/08/29 07:19:48;;;;;;;31.62;25.45;;;;;;;15.82;89.18;100018.20;1776290;78;25719;-67
2021/08/29 07:22:15;;;;;;;23.27;20.65;;;;;;;16.03;88.86;100024.75;1755337;80;26492;-66
2021/08/29 07:24:41;;;;;;;23.35;19.65;;;;;;;16.26;88.88;100021.41;1754242;80;28687;-66
2021/08/29 07:27:07;;;;;;;23.50;18.52;;;;;;;16.50;88.50;100020.96;1785993;78;25897;-65
2021/08/29 07:29:34;;;;;;;20.70;17.82;;;;;;;16.72;88.12;100027.14;1776603;79;26186;-65
2021/08/29 07:32:01;;;;;;;17.95;15.78;;;;;;;16.91;87.51;100020.93;1757683;78;25819;-66
2021/08/29 07:34:27;;;;;;;19.42;15.48;;;;;;;17.16;86.69;100024.73;1788705;78;25774;-65
2021/08/29 07:36:53;;;;;;;19.23;16.57;;;;;;;17.33;85.38;100022.95;1784633;79;27467;-65
2021/08/29 07:39:19;;;;;;;17.75;15.75;;;;;;;17.50;85.48;100021.70;1783725;79;26074;-65
2021/08/29 07:41:48;;;;;;;17.55;15.08;;;;;;;17.73;85.12;100014.09;1787786;79;26369;-65
2021/08/29 07:44:14;;;;;;;18.87;15.10;;;;;;;17.90;84.11;100016.37;1782596;79;26176;-66
2021/08/29 07:46:40;;;;;;;17.90;13.88;;;;;;;18.08;83.12;100017.23;1775440;80;25747;-66
2021/08/29 07:49:06;;;;;;;26.15;21.42;;;;;;;18.20;82.58;100014.33;1775552;80;27472;-66
2021/08/29 07:51:33;;;;;;;36.45;27.37;;;;;;;18.38;82.38;100017.91;1775342;80;26361;-65
2021/08/29 07:53:59;;;;;;;19.80;14.98;;;;;;;18.58;81.93;100018.59;1775680;80;25715;-65
2021/08/29 07:56:25;;;;;;;14.40;12.90;;;;;;;18.76;81.37;100027.04;1775540;80;26071;-64
2021/08/29 07:58:51;;;;;;;16.93;13.25;;;;;;;18.84;80.55;100021.31;1775633;80;25990;-64
2021/08/29 08:01:18;;;;;;;14.73;13.22;;;;;;;18.99;80.04;100025.03;1775646;80;27460;-64
2021/08/29 08:03:44;;;;;;;16.02;12.88;;;;;;;19.08;79.64;100029.44;1778352;78;25745;-64
2021/08/29 08:06:11;;;;;;;13.78;12.43;;;;;;;19.20;79.17;100024.48;1785467;79;25803;-64
2021/08/29 08:08:37;;;;;;;17.27;11.97;;;;;;;19.33;78.28;100022.30;1793928;79;26242;-64
2021/08/29 08:11:04;;;;;;;13.30;11.80;;;;;;;19.40;77.60;100022.95;1793943;79;25764;-64
2021/08/29 08:13:30;;;;;;;15.30;13.70;;;;;;;19.44;77.28;100025.14;1793553;79;27534;-64
2021/08/29 08:15:57;;;;;;;15.72;11.33;;;;;;;19.53;77.23;100019.35;1793700;79;25900;-64
2021/08/29 08:18:25;;;;;;;16.57;12.60;;;;;;;19.60;76.19;100022.19;1793857;79;26585;-65
2021/08/29 08:20:53;;;;;;;12.07;10.75;;;;;;;19.68;76.00;100025.22;1794041;79;26223;-63
2021/08/29 08:23:20;;;;;;;13.30;10.95;;;;;;;19.78;75.85;100027.86;1793758;79;25655;-64
2021/08/29 08:25:48;;;;;;;11.22;10.10;;;;;;;19.88;75.72;100020.91;1793617;79;27515;-64
2021/08/29 08:28:15;;;;;;;12.80;10.72;;;;;;;19.98;74.48;100024.91;1789609;79;26140;-64
2021/08/29 08:30:41;;;;;;;12.00;10.35;;;;;;;20.00;74.11;100028.06;1785162;78;25878;-65
2021/08/29 08:33:08;;;;;;;43.65;27.80;;;;;;;20.04;73.56;100035.17;1747420;80;26229;-65
2021/08/29 08:35:34;;;;;;;27.62;14.45;;;;;;;20.10;73.35;100039.12;1753960;81;25775;-66
2021/08/29 08:38:00;;;;;;;13.85;11.12;;;;;;;20.15;73.32;100033.87;1754048;81;28184;-65
2021/08/29 08:40:32;;;;;;;14.80;10.72;;;;;;;20.17;72.49;100037.02;1753734;81;25791;-65
2021/08/29 08:42:58;;;;;;;11.65;10.03;;;;;;;20.12;71.62;100032.66;1752201;81;26047;-65
2021/08/29 08:45:25;;;;;;;10.70;9.60;;;;;;;20.09;71.75;100040.31;1753849;81;25720;-65
2021/08/29 08:47:52;;;;;;;12.63;9.48;;;;;;;20.09;71.37;100035.38;1745922;80;25833;-64
2021/08/29 08:50:20;;;;;;;11.40;10.05;;;;;;;20.11;71.64;100034.44;1790966;78;29711;-65
2021/08/29 08:52:48;;;;;;;9.95;8.83;;;;;;;20.18;71.65;100037.83;1767723;80;25743;-65
2021/08/29 08:55:15;;;;;;;10.93;9.83;;;;;;;20.19;71.46;100040.77;1792411;78;25719;-65
2021/08/29 08:57:42;;;;;;;10.82;9.30;;;;;;;20.24;71.63;100042.56;1784990;80;25777;-64
2021/08/29 09:00:10;;;;;;;9.65;8.73;;;;;;;20.30;71.54;100039.67;1785185;80;25782;-65
2021/08/29 09:02:37;;;;;;;11.80;8.95;;;;;;;20.37;71.31;100038.16;1754561;80;28150;-65
2021/08/29 09:05:04;;;;;;;11.33;8.43;;;;;;;20.40;71.07;100037.37;1785084;80;25880;-66
2021/08/29 09:07:31;;;;;;;10.80;9.10;;;;;;;20.46;70.76;100035.27;1785166;80;26439;-65
2021/08/29 09:09:57;;;;;;;10.32;8.18;;;;;;;20.48;69.67;100041.19;1785251;80;25770;-65
2021/08/29 09:12:24;;;;;;;9.10;8.20;;;;;;;20.46;69.81;100038.02;1784951;80;25696;-66
2021/08/29 09:14:53;;;;;;;11.15;9.10;;;;;;;20.42;69.46;100035.06;1785365;80;27913;-65
2021/08/29 09:17:37;;;;;;;10.30;9.00;;;;;;;20.40;69.30;100040.93;1784330;80;25862;-65
2021/08/29 09:20:35;;;;;;;9.50;8.60;;;;;;;20.33;68.77;100043.04;1771051;80;25744;-66
2021/08/29 09:23:04;;;;;;;9.68;8.35;;;;;;;20.28;68.56;100039.27;1788551;78;26103;-66
2021/08/29 09:25:33;;;;;;;12.88;9.45;;;;;;;20.23;68.99;100037.48;1784876;80;26388;-64
2021/08/29 09:28:01;;;;;;;;;;;;;;;20.23;69.06;100038.25;1782545;80;27491;-64
2021/08/29 09:30:31;;;;;;;9.18;8.28;;;;;;;20.23;68.82;100038.85;1773810;80;25803;-64
2021/08/29 09:33:00;;;;;;;11.83;9.15;;;;;;;20.21;68.56;100033.73;1779677;78;26137;-66
2021/08/29 09:35:31;;;;;;;10.13;8.55;;;;;;;20.09;68.18;100033.45;1780750;80;27661;-64
2021/08/29 09:38:00;;;;;;;11.25;9.38;;;;;;;20.06;68.83;100032.83;1789505;80;25958;-63
2021/08/29 09:40:34;;;;;;;10.40;8.75;;;;;;;20.01;68.48;100027.69;1785363;80;28184;-65
2021/08/29 09:43:05;;;;;;;12.93;9.18;;;;;;;19.99;68.67;100028.66;1790766;78;26205;-63
2021/08/29 09:45:41;;;;;;;10.72;9.45;;;;;;;19.98;68.17;100030.41;1773943;80;25828;-62
2021/08/29 09:48:11;;;;;;;10.68;8.63;;;;;;;19.93;68.14;100022.70;1769806;78;25795;-64
2021/08/29 09:50:41;;;;;;;11.38;10.23;;;;;;;19.89;68.41;100016.41;1826944;78;26374;-65
2021/08/29 09:53:20;;;;;;;12.40;9.90;;;;;;;19.90;68.41;100017.19;1753782;79;27563;-72
2021/08/29 09:55:49;;;;;;;12.13;10.05;;;;;;;19.88;68.66;100012.67;1780977;80;25700;-67
2021/08/29 09:58:26;;;;;;;12.70;10.00;;;;;;;19.86;68.75;100013.05;1784822;80;25766;-66
2021/08/29 10:01:18;;;;;;;10.78;9.65;;;;;;;19.86;68.89;100025.39;1784948;80;25707;-66
2021/08/29 10:03:48;;;;;;;10.78;9.68;;;;;;;19.87;68.81;100026.17;1753429;81;26432;-66
2021/08/29 10:06:21;;;;;;;10.48;9.35;;;;;;;19.76;68.42;100026.87;1784967;80;29054;-66
2021/08/29 10:09:02;;;;;;;11.15;9.60;;;;;;;19.72;68.81;100026.63;1753834;81;25956;-67
2021/08/29 10:11:32;;;;;;;12.05;9.40;;;;;;;19.70;68.92;100029.73;1784906;80;26365;-66
2021/08/29 10:13:59;;;;;;;13.43;9.93;;;;;;;19.65;68.89;100027.34;1753811;81;25950;-67
2021/08/29 10:16:27;;;;;;;11.95;9.05;;;;;;;19.57;69.11;100022.94;1784438;80;25708;-66
2021/08/29 10:18:57;;;;;;;11.30;8.58;;;;;;;19.52;69.49;100021.31;1785014;80;27252;-67
2021/08/29 10:21:27;;;;;;;;;;;;;;;19.49;68.95;100024.02;1754700;81;25655;-68
2021/08/29 10:23:57;;;;;;;9.93;8.93;;;;;;;19.46;68.51;100024.77;1751110;81;25878;-68
2021/08/29 10:26:25;;;;;;;9.25;8.45;;;;;;;19.34;68.53;100015.66;1753552;81;25854;-66
2021/08/29 10:29:07;;;;;;;9.93;8.75;;;;;;;19.33;68.74;100018.77;1771004;80;25752;-67
2021/08/29 10:31:53;;;;;;;8.75;7.87;;;;;;;19.26;67.97;100026.89;1772803;80;28208;-66
2021/08/29 10:34:20;;;;;;;10.03;9.03;;;;;;;19.09;67.89;100034.55;1773946;78;26323;-67
2021/08/29 10:36:47;;;;;;;10.35;8.38;;;;;;;18.98;67.65;100037.14;1789127;78;26473;-69
2021/08/29 10:39:14;;;;;;;9.03;8.18;;;;;;;18.88;68.01;100038.38;1779738;80;25788;-68
2021/08/29 10:41:42;;;;;;;9.70;8.60;;;;;;;18.80;68.42;100036.11;1784512;80;25683;-68
2021/08/29 10:44:09;;;;;;;14.53;9.13;;;;;;;18.73;68.89;100033.25;1790803;78;28148;-68
2021/08/29 10:46:38;;;;;;;10.60;8.90;;;;;;;18.67;69.19;100033.58;1802978;78;26415;-70
2021/08/29 10:49:05;;;;;;;10.10;8.70;;;;;;;18.63;69.28;100038.22;1744493;79;25747;-69
2021/08/29 10:51:32;;;;;;;9.08;8.18;;;;;;;18.59;69.59;100030.55;1778156;79;27623;-69
2021/08/29 10:53:58;;;;;;;11.05;8.88;;;;;;;18.52;69.94;100025.53;1759336;81;26128;-68
2021/08/29 10:56:34;;;;;;;10.08;8.98;;;;;;;18.56;70.41;100030.47;1790597;80;28278;-70
2021/08/29 10:59:12;;;;;;;9.63;8.63;;;;;;;18.56;70.50;100035.39;1790722;80;26383;-70
2021/08/29 11:01:43;;;;;;;10.25;8.93;;;;;;;18.54;70.60;100029.50;1790638;80;26448;-69
2021/08/29 11:04:30;;;;;;;10.00;9.00;;;;;;;18.48;70.74;100023.53;1728155;81;25863;-69
2021/08/29 11:07:06;;;;;;;9.48;8.58;;;;;;;18.47;70.85;100025.27;1757246;81;25750;-70
2021/08/29 11:09:38;;;;;;;10.08;9.08;;;;;;;18.43;70.56;100024.44;1791178;80;27530;-69
2021/08/29 11:12:18;;;;;;;9.73;8.73;;;;;;;18.43;70.84;100022.48;1756249;81;25669;-70
2021/08/29 11:14:51;;;;;;;;;;;;;;;18.43;70.70;100023.84;1776735;80;26438;-70
2021/08/29 11:17:22;;;;;;;11.90;9.95;;;;;;;18.48;70.87;100022.16;1759756;81;26186;-68